This is the latest recevied weather packets stored in our database for station/object NR6G-5. If no packets are shown the sender has not sent any weather packets the latest 10 day(s).
| Time | Temp. | Humidity | Pressure | Rain* | Wind** | Luminosity | Snow |
|---|---|---|---|---|---|---|---|
| 1777842792 | 24.44° C | 41% | 1009.1 hPa | 0 mm | - | - | - |
| 1777842492 | 24.44° C | 40% | 1009.2 hPa | 0 mm | - | - | - |
| 1777841079 | 24.44° C | 42% | 1009.3 hPa | 0 mm | - | - | - |
| 1777839880 | 24.44° C | 42% | 1009.5 hPa | 0 mm | - | - | - |
| 1777839580 | 23.89° C | 43% | 1009.5 hPa | 0 mm | - | - | - |
| 1777839279 | 23.89° C | 42% | 1009.5 hPa | 0 mm | - | - | - |
| 1777838680 | 23.33° C | 44% | 1009.7 hPa | 0 mm | - | - | - |
| 1777838080 | 22.78° C | 44% | 1009.8 hPa | 0 mm | - | - | - |
| 1777836866 | 23.33° C | 45% | 1010.1 hPa | 0 mm | - | - | - |
| 1777835668 | 22.22° C | 48% | 1010.5 hPa | 0 mm | - | - | - |
| 1777834466 | 21.67° C | 48% | 1010.8 hPa | 0 mm | - | - | - |
| 1777833867 | 21.67° C | 49% | 1011 hPa | 0 mm | - | - | - |
| 1777833566 | 21.11° C | 50% | 1011.1 hPa | 0 mm | - | - | - |
| 1777832666 | 20.56° C | 52% | 1011.2 hPa | 0 mm | - | - | - |
| 1777832366 | 20.56° C | 52% | 1011.4 hPa | 0 mm | - | - | - |
| 1777828286 | 19.44° C | 56% | 1011.7 hPa | 0 mm | - | - | - |
| 1777827988 | 18.89° C | 56% | 1011.7 hPa | 0 mm | - | - | - |
| 1777825886 | 18.33° C | 58% | 1011.4 hPa | 0 mm | - | - | - |
| 1777825586 | 18.33° C | 58% | 1011.4 hPa | 0 mm | - | - | - |
| 1777825286 | 18.33° C | 58% | 1011.3 hPa | 0 mm | - | - | - |
| 1777824087 | 18.33° C | 58% | 1011 hPa | 0 mm | - | - | - |
| 1777822714 | 18.33° C | 60% | 1010.8 hPa | 0 mm | - | - | - |
| 1777821814 | 17.78° C | 62% | 1010.5 hPa | 0 mm | - | - | - |
| 1777820314 | 16.67° C | 68% | 1010.1 hPa | 0 mm | - | - | - |
| 1777817914 | 15° C | 72% | 1009.4 hPa | 0 mm | - | - | - |
* Rain latest hour (hover to see other rain measurements)
** Current wind speed in m/s (hover to see current wind gust speed)